sensor_id;sensor_type;location;lat;lon;timestamp;P1;durP1;ratioP1;P2;durP2;ratioP2
19402;SDS011;9837;48.888;8.998;2023-02-01T00:02:19;1.27;;;1.17;;
19402;SDS011;9837;48.888;8.998;2023-02-01T00:04:45;3.40;;;1.30;;
19402;SDS011;9837;48.888;8.998;2023-02-01T00:07:11;2.43;;;1.60;;
19402;SDS011;9837;48.888;8.998;2023-02-01T00:09:37;2.03;;;1.33;;
19402;SDS011;9837;48.888;8.998;2023-02-01T00:12:04;1.23;;;0.90;;
19402;SDS011;9837;48.888;8.998;2023-02-01T00:14:30;1.03;;;0.97;;
19402;SDS011;9837;48.888;8.998;2023-02-01T00:17:03;1.63;;;1.53;;
19402;SDS011;9837;48.888;8.998;2023-02-01T00:19:29;1.70;;;1.60;;
19402;SDS011;9837;48.888;8.998;2023-02-01T00:21:55;2.47;;;1.63;;
19402;SDS011;9837;48.888;8.998;2023-02-01T00:24:21;2.13;;;1.80;;
19402;SDS011;9837;48.888;8.998;2023-02-01T00:26:47;1.87;;;1.60;;
19402;SDS011;9837;48.888;8.998;2023-02-01T00:29:14;2.17;;;1.60;;
19402;SDS011;9837;48.888;8.998;2023-02-01T00:31:41;1.60;;;1.50;;
19402;SDS011;9837;48.888;8.998;2023-02-01T00:34:08;1.90;;;1.70;;
19402;SDS011;9837;48.888;8.998;2023-02-01T00:36:35;2.00;;;1.67;;
19402;SDS011;9837;48.888;8.998;2023-02-01T00:39:01;3.53;;;1.60;;
19402;SDS011;9837;48.888;8.998;2023-02-01T00:41:27;1.43;;;1.33;;
19402;SDS011;9837;48.888;8.998;2023-02-01T00:43:53;1.67;;;1.40;;
19402;SDS011;9837;48.888;8.998;2023-02-01T00:46:19;2.17;;;1.77;;
19402;SDS011;9837;48.888;8.998;2023-02-01T00:48:46;1.90;;;1.67;;
19402;SDS011;9837;48.888;8.998;2023-02-01T00:51:13;2.13;;;1.73;;
19402;SDS011;9837;48.888;8.998;2023-02-01T00:53:40;2.47;;;2.27;;
19402;SDS011;9837;48.888;8.998;2023-02-01T00:56:06;1.60;;;1.50;;
19402;SDS011;9837;48.888;8.998;2023-02-01T00:58:32;2.10;;;1.90;;
19402;SDS011;9837;48.888;8.998;2023-02-01T01:01:13;2.93;;;1.60;;
19402;SDS011;9837;48.888;8.998;2023-02-01T01:03:40;1.50;;;1.40;;
19402;SDS011;9837;48.888;8.998;2023-02-01T01:06:12;1.97;;;1.63;;
19402;SDS011;9837;48.888;8.998;2023-02-01T01:08:39;1.83;;;1.60;;
19402;SDS011;9837;48.888;8.998;2023-02-01T01:11:10;2.07;;;1.50;;
19402;SDS011;9837;48.888;8.998;2023-02-01T01:13:41;1.70;;;1.57;;
19402;SDS011;9837;48.888;8.998;2023-02-01T01:16:07;1.63;;;1.53;;
19402;SDS011;9837;48.888;8.998;2023-02-01T01:18:34;1.90;;;1.43;;
19402;SDS011;9837;48.888;8.998;2023-02-01T01:21:00;2.07;;;1.83;;
19402;SDS011;9837;48.888;8.998;2023-02-01T01:23:26;2.40;;;1.70;;
19402;SDS011;9837;48.888;8.998;2023-02-01T01:25:53;1.90;;;1.80;;
19402;SDS011;9837;48.888;8.998;2023-02-01T01:28:19;1.50;;;1.40;;
19402;SDS011;9837;48.888;8.998;2023-02-01T01:30:45;2.77;;;1.97;;
19402;SDS011;9837;48.888;8.998;2023-02-01T01:33:11;2.53;;;1.60;;
19402;SDS011;9837;48.888;8.998;2023-02-01T01:35:37;1.70;;;1.60;;
19402;SDS011;9837;48.888;8.998;2023-02-01T01:38:03;2.37;;;1.93;;
19402;SDS011;9837;48.888;8.998;2023-02-01T01:40:30;1.60;;;1.50;;
19402;SDS011;9837;48.888;8.998;2023-02-01T01:42:57;2.10;;;1.70;;
19402;SDS011;9837;48.888;8.998;2023-02-01T01:45:33;1.97;;;1.80;;
19402;SDS011;9837;48.888;8.998;2023-02-01T01:48:11;2.40;;;1.70;;
19402;SDS011;9837;48.888;8.998;2023-02-01T01:50:59;2.53;;;1.87;;
19402;SDS011;9837;48.888;8.998;2023-02-01T01:53:33;2.53;;;2.33;;
19402;SDS011;9837;48.888;8.998;2023-02-01T01:56:11;1.90;;;1.70;;
19402;SDS011;9837;48.888;8.998;2023-02-01T01:58:39;1.90;;;1.57;;
19402;SDS011;9837;48.888;8.998;2023-02-01T02:01:06;2.27;;;1.30;;
19402;SDS011;9837;48.888;8.998;2023-02-01T02:03:34;2.93;;;1.90;;
19402;SDS011;9837;48.888;8.998;2023-02-01T02:06:11;1.93;;;1.70;;
19402;SDS011;9837;48.888;8.998;2023-02-01T02:08:48;1.90;;;1.60;;
19402;SDS011;9837;48.888;8.998;2023-02-01T02:11:15;1.90;;;1.80;;
19402;SDS011;9837;48.888;8.998;2023-02-01T02:13:42;3.73;;;2.00;;
19402;SDS011;9837;48.888;8.998;2023-02-01T02:27:26;1.80;;;1.47;;
19402;SDS011;9837;48.888;8.998;2023-02-01T02:30:09;2.43;;;2.00;;
19402;SDS011;9837;48.888;8.998;2023-02-01T02:41:07;1.70;;;1.60;;
19402;SDS011;9837;48.888;8.998;2023-02-01T02:44:08;1.70;;;1.60;;
19402;SDS011;9837;48.888;8.998;2023-02-01T02:46:58;2.00;;;1.73;;
19402;SDS011;9837;48.888;8.998;2023-02-01T02:50:05;1.83;;;1.53;;
19402;SDS011;9837;48.888;8.998;2023-02-01T02:53:01;1.40;;;1.30;;
19402;SDS011;9837;48.888;8.998;2023-02-01T02:55:59;4.60;;;2.00;;
19402;SDS011;9837;48.888;8.998;2023-02-01T02:58:48;1.57;;;1.47;;
19402;SDS011;9837;48.888;8.998;2023-02-01T03:01:33;1.50;;;1.40;;
19402;SDS011;9837;48.888;8.998;2023-02-01T03:04:18;2.17;;;1.53;;
19402;SDS011;9837;48.888;8.998;2023-02-01T03:06:45;1.43;;;1.33;;
19402;SDS011;9837;48.888;8.998;2023-02-01T03:09:13;1.70;;;1.60;;
19402;SDS011;9837;48.888;8.998;2023-02-01T03:11:44;2.27;;;1.33;;
19402;SDS011;9837;48.888;8.998;2023-02-01T03:14:31;2.73;;;1.40;;
19402;SDS011;9837;48.888;8.998;2023-02-01T03:17:03;1.53;;;1.43;;
19402;SDS011;9837;48.888;8.998;2023-02-01T03:19:38;1.77;;;1.60;;
19402;SDS011;9837;48.888;8.998;2023-02-01T03:22:14;2.07;;;1.60;;
19402;SDS011;9837;48.888;8.998;2023-02-01T03:24:55;1.60;;;1.50;;
19402;SDS011;9837;48.888;8.998;2023-02-01T03:32:24;1.40;;;1.20;;
19402;SDS011;9837;48.888;8.998;2023-02-01T03:34:53;1.60;;;1.50;;
19402;SDS011;9837;48.888;8.998;2023-02-01T03:37:24;3.20;;;1.40;;
19402;SDS011;9837;48.888;8.998;2023-02-01T03:42:19;1.40;;;1.30;;
19402;SDS011;9837;48.888;8.998;2023-02-01T03:44:50;2.30;;;1.53;;
19402;SDS011;9837;48.888;8.998;2023-02-01T03:47:27;1.53;;;1.43;;
19402;SDS011;9837;48.888;8.998;2023-02-01T03:50:00;2.50;;;1.50;;
19402;SDS011;9837;48.888;8.998;2023-02-01T03:52:31;1.60;;;1.50;;
19402;SDS011;9837;48.888;8.998;2023-02-01T03:55:19;1.60;;;1.50;;
19402;SDS011;9837;48.888;8.998;2023-02-01T04:00:29;1.60;;;1.50;;
19402;SDS011;9837;48.888;8.998;2023-02-01T04:02:55;2.13;;;1.50;;
19402;SDS011;9837;48.888;8.998;2023-02-01T04:05:21;1.50;;;1.40;;
19402;SDS011;9837;48.888;8.998;2023-02-01T04:07:47;1.90;;;1.47;;
19402;SDS011;9837;48.888;8.998;2023-02-01T04:10:14;3.77;;;1.53;;
19402;SDS011;9837;48.888;8.998;2023-02-01T04:12:40;1.47;;;1.37;;
19402;SDS011;9837;48.888;8.998;2023-02-01T04:15:06;2.37;;;1.57;;
19402;SDS011;9837;48.888;8.998;2023-02-01T04:17:32;4.23;;;2.60;;
19402;SDS011;9837;48.888;8.998;2023-02-01T04:19:59;2.33;;;1.60;;
19402;SDS011;9837;48.888;8.998;2023-02-01T04:22:25;2.70;;;2.03;;
19402;SDS011;9837;48.888;8.998;2023-02-01T04:24:51;2.97;;;1.80;;
19402;SDS011;9837;48.888;8.998;2023-02-01T04:27:17;2.40;;;1.50;;
19402;SDS011;9837;48.888;8.998;2023-02-01T04:29:43;3.17;;;1.87;;
19402;SDS011;9837;48.888;8.998;2023-02-01T04:32:10;3.10;;;1.60;;
19402;SDS011;9837;48.888;8.998;2023-02-01T04:34:36;1.80;;;1.60;;
19402;SDS011;9837;48.888;8.998;2023-02-01T04:37:02;2.33;;;1.43;;
19402;SDS011;9837;48.888;8.998;2023-02-01T04:39:28;2.20;;;1.87;;
19402;SDS011;9837;48.888;8.998;2023-02-01T04:41:54;2.27;;;1.80;;
19402;SDS011;9837;48.888;8.998;2023-02-01T04:44:21;2.10;;;1.73;;
19402;SDS011;9837;48.888;8.998;2023-02-01T04:46:47;2.07;;;1.87;;
19402;SDS011;9837;48.888;8.998;2023-02-01T04:49:13;1.63;;;1.53;;
19402;SDS011;9837;48.888;8.998;2023-02-01T04:51:40;1.70;;;1.50;;
19402;SDS011;9837;48.888;8.998;2023-02-01T04:54:06;3.40;;;1.80;;
19402;SDS011;9837;48.888;8.998;2023-02-01T04:56:33;3.17;;;1.53;;
19402;SDS011;9837;48.888;8.998;2023-02-01T04:59:02;2.93;;;1.73;;
19402;SDS011;9837;48.888;8.998;2023-02-01T05:01:28;2.23;;;1.90;;
19402;SDS011;9837;48.888;8.998;2023-02-01T05:03:54;1.90;;;1.80;;
19402;SDS011;9837;48.888;8.998;2023-02-01T05:06:21;2.10;;;1.43;;
19402;SDS011;9837;48.888;8.998;2023-02-01T05:08:47;3.97;;;1.70;;
19402;SDS011;9837;48.888;8.998;2023-02-01T05:11:13;1.63;;;1.53;;
19402;SDS011;9837;48.888;8.998;2023-02-01T05:13:58;4.00;;;1.73;;
19402;SDS011;9837;48.888;8.998;2023-02-01T05:16:25;1.60;;;1.50;;
19402;SDS011;9837;48.888;8.998;2023-02-01T05:18:51;2.50;;;1.70;;
19402;SDS011;9837;48.888;8.998;2023-02-01T05:21:17;5.73;;;1.43;;
19402;SDS011;9837;48.888;8.998;2023-02-01T05:23:43;3.07;;;1.73;;
19402;SDS011;9837;48.888;8.998;2023-02-01T05:26:29;3.27;;;1.87;;
19402;SDS011;9837;48.888;8.998;2023-02-01T05:28:55;1.73;;;1.50;;
19402;SDS011;9837;48.888;8.998;2023-02-01T05:31:22;2.20;;;2.03;;
19402;SDS011;9837;48.888;8.998;2023-02-01T05:33:49;1.87;;;1.63;;
19402;SDS011;9837;48.888;8.998;2023-02-01T05:36:15;3.20;;;1.70;;
19402;SDS011;9837;48.888;8.998;2023-02-01T05:38:41;3.60;;;2.20;;
19402;SDS011;9837;48.888;8.998;2023-02-01T05:41:07;3.23;;;1.77;;
19402;SDS011;9837;48.888;8.998;2023-02-01T05:43:33;4.97;;;2.07;;
19402;SDS011;9837;48.888;8.998;2023-02-01T05:46:02;2.50;;;1.73;;
19402;SDS011;9837;48.888;8.998;2023-02-01T05:48:28;2.23;;;1.80;;
19402;SDS011;9837;48.888;8.998;2023-02-01T05:50:54;2.10;;;1.70;;
19402;SDS011;9837;48.888;8.998;2023-02-01T05:53:20;3.27;;;1.47;;
19402;SDS011;9837;48.888;8.998;2023-02-01T05:55:46;1.87;;;1.60;;
19402;SDS011;9837;48.888;8.998;2023-02-01T05:58:13;2.57;;;1.83;;
19402;SDS011;9837;48.888;8.998;2023-02-01T06:00:39;4.77;;;1.67;;
19402;SDS011;9837;48.888;8.998;2023-02-01T06:03:05;1.77;;;1.63;;
19402;SDS011;9837;48.888;8.998;2023-02-01T06:05:31;2.03;;;1.77;;
19402;SDS011;9837;48.888;8.998;2023-02-01T06:07:57;2.63;;;1.97;;
19402;SDS011;9837;48.888;8.998;2023-02-01T06:10:23;5.93;;;2.07;;
19402;SDS011;9837;48.888;8.998;2023-02-01T06:12:50;5.67;;;3.40;;
19402;SDS011;9837;48.888;8.998;2023-02-01T06:15:16;3.13;;;2.23;;
19402;SDS011;9837;48.888;8.998;2023-02-01T06:17:43;2.63;;;2.30;;
19402;SDS011;9837;48.888;8.998;2023-02-01T06:20:10;4.93;;;2.83;;
19402;SDS011;9837;48.888;8.998;2023-02-01T06:22:37;3.37;;;2.63;;
19402;SDS011;9837;48.888;8.998;2023-02-01T06:25:04;6.13;;;3.33;;
19402;SDS011;9837;48.888;8.998;2023-02-01T06:27:30;4.37;;;3.33;;
19402;SDS011;9837;48.888;8.998;2023-02-01T06:29:56;10.13;;;3.17;;
19402;SDS011;9837;48.888;8.998;2023-02-01T06:32:22;5.77;;;3.30;;
19402;SDS011;9837;48.888;8.998;2023-02-01T06:34:48;6.07;;;3.20;;
19402;SDS011;9837;48.888;8.998;2023-02-01T06:37:15;5.73;;;3.63;;
19402;SDS011;9837;48.888;8.998;2023-02-01T06:39:41;5.33;;;3.10;;
19402;SDS011;9837;48.888;8.998;2023-02-01T06:42:07;4.47;;;3.40;;
19402;SDS011;9837;48.888;8.998;2023-02-01T06:44:33;4.87;;;3.50;;
19402;SDS011;9837;48.888;8.998;2023-02-01T06:47:00;6.63;;;4.70;;
19402;SDS011;9837;48.888;8.998;2023-02-01T06:49:26;13.73;;;4.07;;
19402;SDS011;9837;48.888;8.998;2023-02-01T06:51:52;8.67;;;3.43;;
19402;SDS011;9837;48.888;8.998;2023-02-01T06:54:18;8.63;;;3.50;;
19402;SDS011;9837;48.888;8.998;2023-02-01T06:56:44;7.70;;;3.67;;
19402;SDS011;9837;48.888;8.998;2023-02-01T06:59:10;7.40;;;4.17;;
19402;SDS011;9837;48.888;8.998;2023-02-01T07:01:37;6.50;;;3.23;;
19402;SDS011;9837;48.888;8.998;2023-02-01T07:04:03;8.60;;;3.90;;
19402;SDS011;9837;48.888;8.998;2023-02-01T07:06:29;5.80;;;3.77;;
19402;SDS011;9837;48.888;8.998;2023-02-01T07:08:55;10.10;;;3.70;;
19402;SDS011;9837;48.888;8.998;2023-02-01T07:11:22;5.33;;;4.03;;
19402;SDS011;9837;48.888;8.998;2023-02-01T07:13:48;9.67;;;3.77;;
19402;SDS011;9837;48.888;8.998;2023-02-01T07:16:16;7.50;;;3.50;;
19402;SDS011;9837;48.888;8.998;2023-02-01T07:18:44;6.87;;;3.60;;
19402;SDS011;9837;48.888;8.998;2023-02-01T07:21:10;8.67;;;4.07;;
19402;SDS011;9837;48.888;8.998;2023-02-01T07:23:36;5.13;;;3.40;;
19402;SDS011;9837;48.888;8.998;2023-02-01T07:26:03;5.47;;;3.40;;
19402;SDS011;9837;48.888;8.998;2023-02-01T07:28:31;9.73;;;3.67;;
19402;SDS011;9837;48.888;8.998;2023-02-01T07:31:07;11.73;;;4.00;;
19402;SDS011;9837;48.888;8.998;2023-02-01T07:33:34;7.43;;;3.67;;
19402;SDS011;9837;48.888;8.998;2023-02-01T07:36:01;6.30;;;3.80;;
19402;SDS011;9837;48.888;8.998;2023-02-01T07:38:28;9.23;;;3.93;;
19402;SDS011;9837;48.888;8.998;2023-02-01T07:40:58;9.57;;;3.63;;
19402;SDS011;9837;48.888;8.998;2023-02-01T07:43:24;10.03;;;3.90;;
19402;SDS011;9837;48.888;8.998;2023-02-01T07:45:54;7.07;;;3.87;;
19402;SDS011;9837;48.888;8.998;2023-02-01T07:48:20;11.30;;;4.07;;
19402;SDS011;9837;48.888;8.998;2023-02-01T07:50:47;13.07;;;3.87;;
19402;SDS011;9837;48.888;8.998;2023-02-01T07:53:13;9.60;;;4.07;;
19402;SDS011;9837;48.888;8.998;2023-02-01T07:55:40;11.27;;;4.00;;
19402;SDS011;9837;48.888;8.998;2023-02-01T07:58:06;5.87;;;3.97;;
19402;SDS011;9837;48.888;8.998;2023-02-01T08:00:32;8.23;;;3.67;;
19402;SDS011;9837;48.888;8.998;2023-02-01T08:03:17;9.57;;;3.53;;
19402;SDS011;9837;48.888;8.998;2023-02-01T08:05:43;12.33;;;3.30;;
19402;SDS011;9837;48.888;8.998;2023-02-01T08:08:09;17.07;;;4.23;;
19402;SDS011;9837;48.888;8.998;2023-02-01T08:10:35;9.97;;;3.83;;
19402;SDS011;9837;48.888;8.998;2023-02-01T08:13:01;11.70;;;5.10;;
19402;SDS011;9837;48.888;8.998;2023-02-01T08:15:28;9.20;;;3.33;;
19402;SDS011;9837;48.888;8.998;2023-02-01T08:17:54;7.10;;;3.43;;
19402;SDS011;9837;48.888;8.998;2023-02-01T08:20:22;10.23;;;3.67;;
19402;SDS011;9837;48.888;8.998;2023-02-01T08:22:49;13.97;;;3.70;;
19402;SDS011;9837;48.888;8.998;2023-02-01T08:25:15;9.30;;;3.33;;
19402;SDS011;9837;48.888;8.998;2023-02-01T08:27:41;8.03;;;3.00;;
19402;SDS011;9837;48.888;8.998;2023-02-01T08:30:07;8.93;;;3.40;;
19402;SDS011;9837;48.888;8.998;2023-02-01T08:32:34;6.53;;;3.23;;
19402;SDS011;9837;48.888;8.998;2023-02-01T08:35:00;6.60;;;3.33;;
19402;SDS011;9837;48.888;8.998;2023-02-01T08:37:26;8.20;;;3.40;;
19402;SDS011;9837;48.888;8.998;2023-02-01T08:39:52;8.63;;;3.37;;
19402;SDS011;9837;48.888;8.998;2023-02-01T08:42:18;8.07;;;2.90;;
19402;SDS011;9837;48.888;8.998;2023-02-01T08:45:04;5.57;;;2.43;;
19402;SDS011;9837;48.888;8.998;2023-02-01T08:47:32;14.07;;;3.33;;
19402;SDS011;9837;48.888;8.998;2023-02-01T08:49:59;12.00;;;3.33;;
19402;SDS011;9837;48.888;8.998;2023-02-01T08:52:25;9.73;;;3.40;;
19402;SDS011;9837;48.888;8.998;2023-02-01T08:54:51;13.17;;;3.70;;
19402;SDS011;9837;48.888;8.998;2023-02-01T08:57:17;7.53;;;3.50;;
19402;SDS011;9837;48.888;8.998;2023-02-01T08:59:43;11.37;;;3.27;;
19402;SDS011;9837;48.888;8.998;2023-02-01T09:02:13;12.40;;;3.73;;
19402;SDS011;9837;48.888;8.998;2023-02-01T09:04:40;10.07;;;3.27;;
19402;SDS011;9837;48.888;8.998;2023-02-01T09:07:08;8.37;;;3.13;;
19402;SDS011;9837;48.888;8.998;2023-02-01T09:09:34;8.87;;;3.90;;
19402;SDS011;9837;48.888;8.998;2023-02-01T09:12:00;8.77;;;3.40;;
19402;SDS011;9837;48.888;8.998;2023-02-01T09:14:27;9.40;;;3.43;;
19402;SDS011;9837;48.888;8.998;2023-02-01T09:16:53;8.40;;;3.23;;
19402;SDS011;9837;48.888;8.998;2023-02-01T09:19:19;12.13;;;3.43;;
19402;SDS011;9837;48.888;8.998;2023-02-01T09:21:45;13.67;;;3.93;;
19402;SDS011;9837;48.888;8.998;2023-02-01T09:24:11;11.50;;;3.47;;
19402;SDS011;9837;48.888;8.998;2023-02-01T09:26:37;8.73;;;3.70;;
19402;SDS011;9837;48.888;8.998;2023-02-01T09:29:04;9.87;;;3.40;;
19402;SDS011;9837;48.888;8.998;2023-02-01T09:31:35;12.60;;;3.77;;
19402;SDS011;9837;48.888;8.998;2023-02-01T09:34:01;13.03;;;3.00;;
19402;SDS011;9837;48.888;8.998;2023-02-01T09:36:27;7.47;;;2.97;;
19402;SDS011;9837;48.888;8.998;2023-02-01T09:38:53;6.47;;;3.03;;
19402;SDS011;9837;48.888;8.998;2023-02-01T09:41:30;8.60;;;3.07;;
19402;SDS011;9837;48.888;8.998;2023-02-01T09:46:41;11.77;;;3.73;;
19402;SDS011;9837;48.888;8.998;2023-02-01T09:49:15;8.03;;;3.00;;
19402;SDS011;9837;48.888;8.998;2023-02-01T09:51:42;12.97;;;3.70;;
19402;SDS011;9837;48.888;8.998;2023-02-01T09:54:17;13.77;;;3.53;;
19402;SDS011;9837;48.888;8.998;2023-02-01T09:59:26;9.23;;;2.97;;
19402;SDS011;9837;48.888;8.998;2023-02-01T10:01:56;7.60;;;2.77;;
19402;SDS011;9837;48.888;8.998;2023-02-01T10:04:24;12.57;;;3.00;;
19402;SDS011;9837;48.888;8.998;2023-02-01T10:12:30;12.63;;;3.40;;
19402;SDS011;9837;48.888;8.998;2023-02-01T10:28:42;8.83;;;2.60;;
19402;SDS011;9837;48.888;8.998;2023-02-01T10:31:13;9.90;;;2.73;;
19402;SDS011;9837;48.888;8.998;2023-02-01T10:33:44;12.97;;;2.90;;
19402;SDS011;9837;48.888;8.998;2023-02-01T10:36:31;15.43;;;3.10;;
19402;SDS011;9837;48.888;8.998;2023-02-01T10:39:03;16.50;;;3.23;;
19402;SDS011;9837;48.888;8.998;2023-02-01T10:41:33;13.20;;;3.07;;
19402;SDS011;9837;48.888;8.998;2023-02-01T10:44:02;10.57;;;2.73;;
19402;SDS011;9837;48.888;8.998;2023-02-01T10:46:31;7.73;;;2.70;;
19402;SDS011;9837;48.888;8.998;2023-02-01T10:49:00;8.43;;;2.13;;
19402;SDS011;9837;48.888;8.998;2023-02-01T10:51:38;12.50;;;3.50;;
19402;SDS011;9837;48.888;8.998;2023-02-01T10:56:43;13.13;;;3.00;;
19402;SDS011;9837;48.888;8.998;2023-02-01T10:59:23;9.30;;;2.70;;
19402;SDS011;9837;48.888;8.998;2023-02-01T11:01:51;7.87;;;2.70;;
19402;SDS011;9837;48.888;8.998;2023-02-01T11:04:24;6.47;;;3.10;;
19402;SDS011;9837;48.888;8.998;2023-02-01T11:07:04;8.23;;;2.77;;
19402;SDS011;9837;48.888;8.998;2023-02-01T11:09:40;14.43;;;3.00;;
19402;SDS011;9837;48.888;8.998;2023-02-01T11:12:20;15.07;;;3.53;;
19402;SDS011;9837;48.888;8.998;2023-02-01T11:14:50;7.73;;;2.67;;
19402;SDS011;9837;48.888;8.998;2023-02-01T11:19:44;11.20;;;2.77;;
19402;SDS011;9837;48.888;8.998;2023-02-01T11:22:10;9.13;;;3.03;;
19402;SDS011;9837;48.888;8.998;2023-02-01T11:24:37;14.43;;;3.13;;
19402;SDS011;9837;48.888;8.998;2023-02-01T11:27:04;10.23;;;3.20;;
19402;SDS011;9837;48.888;8.998;2023-02-01T11:29:41;11.10;;;2.73;;
19402;SDS011;9837;48.888;8.998;2023-02-01T11:32:10;8.03;;;2.47;;
19402;SDS011;9837;48.888;8.998;2023-02-01T11:34:42;6.57;;;2.60;;
19402;SDS011;9837;48.888;8.998;2023-02-01T11:37:14;7.50;;;2.37;;
19402;SDS011;9837;48.888;8.998;2023-02-01T11:39:53;7.87;;;2.67;;
19402;SDS011;9837;48.888;8.998;2023-02-01T11:42:19;4.93;;;2.07;;
19402;SDS011;9837;48.888;8.998;2023-02-01T11:44:46;10.90;;;2.10;;
19402;SDS011;9837;48.888;8.998;2023-02-01T11:47:23;9.13;;;2.53;;
19402;SDS011;9837;48.888;8.998;2023-02-01T11:49:55;15.70;;;2.83;;
19402;SDS011;9837;48.888;8.998;2023-02-01T11:52:41;9.30;;;2.40;;
19402;SDS011;9837;48.888;8.998;2023-02-01T11:55:20;11.83;;;3.23;;
19402;SDS011;9837;48.888;8.998;2023-02-01T11:58:06;9.77;;;3.13;;
19402;SDS011;9837;48.888;8.998;2023-02-01T12:06:15;10.10;;;3.20;;
19402;SDS011;9837;48.888;8.998;2023-02-01T12:08:53;8.27;;;2.67;;
19402;SDS011;9837;48.888;8.998;2023-02-01T12:14:06;6.77;;;3.17;;
19402;SDS011;9837;48.888;8.998;2023-02-01T12:16:44;6.27;;;2.83;;
19402;SDS011;9837;48.888;8.998;2023-02-01T12:19:22;14.37;;;2.57;;
19402;SDS011;9837;48.888;8.998;2023-02-01T12:24:53;15.90;;;2.97;;
19402;SDS011;9837;48.888;8.998;2023-02-01T12:42:40;7.63;;;2.40;;
19402;SDS011;9837;48.888;8.998;2023-02-01T12:45:13;7.53;;;2.47;;
19402;SDS011;9837;48.888;8.998;2023-02-01T12:47:50;8.47;;;2.73;;
19402;SDS011;9837;48.888;8.998;2023-02-01T12:50:25;7.47;;;2.67;;
19402;SDS011;9837;48.888;8.998;2023-02-01T12:52:54;5.13;;;2.77;;
19402;SDS011;9837;48.888;8.998;2023-02-01T12:57:50;8.83;;;2.90;;
19402;SDS011;9837;48.888;8.998;2023-02-01T13:00:24;11.30;;;3.07;;
19402;SDS011;9837;48.888;8.998;2023-02-01T13:02:59;12.50;;;2.87;;
19402;SDS011;9837;48.888;8.998;2023-02-01T13:05:46;13.63;;;3.43;;
19402;SDS011;9837;48.888;8.998;2023-02-01T13:08:16;14.07;;;3.23;;
19402;SDS011;9837;48.888;8.998;2023-02-01T13:10:47;10.40;;;3.33;;
19402;SDS011;9837;48.888;8.998;2023-02-01T13:13:16;10.40;;;3.07;;
19402;SDS011;9837;48.888;8.998;2023-02-01T13:16:02;10.73;;;3.10;;
19402;SDS011;9837;48.888;8.998;2023-02-01T13:18:33;11.33;;;3.23;;
19402;SDS011;9837;48.888;8.998;2023-02-01T13:21:03;7.93;;;2.67;;
19402;SDS011;9837;48.888;8.998;2023-02-01T13:23:39;9.97;;;2.70;;
19402;SDS011;9837;48.888;8.998;2023-02-01T13:26:07;7.43;;;2.90;;
19402;SDS011;9837;48.888;8.998;2023-02-01T13:28:41;5.03;;;2.40;;
19402;SDS011;9837;48.888;8.998;2023-02-01T13:31:22;9.00;;;3.43;;
19402;SDS011;9837;48.888;8.998;2023-02-01T13:38:56;11.63;;;2.80;;
19402;SDS011;9837;48.888;8.998;2023-02-01T13:41:32;8.73;;;2.97;;
19402;SDS011;9837;48.888;8.998;2023-02-01T13:44:14;8.07;;;3.23;;
19402;SDS011;9837;48.888;8.998;2023-02-01T13:46:45;7.70;;;2.47;;
19402;SDS011;9837;48.888;8.998;2023-02-01T13:49:18;6.67;;;2.60;;
19402;SDS011;9837;48.888;8.998;2023-02-01T13:51:48;5.13;;;2.33;;
19402;SDS011;9837;48.888;8.998;2023-02-01T13:57:42;6.80;;;2.23;;
19402;SDS011;9837;48.888;8.998;2023-02-01T14:00:34;15.83;;;3.30;;
19402;SDS011;9837;48.888;8.998;2023-02-01T14:10:46;14.57;;;3.07;;
19402;SDS011;9837;48.888;8.998;2023-02-01T14:37:00;13.00;;;2.77;;
19402;SDS011;9837;48.888;8.998;2023-02-01T14:39:30;9.33;;;2.93;;
19402;SDS011;9837;48.888;8.998;2023-02-01T14:41:58;10.23;;;3.07;;
19402;SDS011;9837;48.888;8.998;2023-02-01T14:44:28;11.83;;;2.87;;
19402;SDS011;9837;48.888;8.998;2023-02-01T14:47:02;13.90;;;2.83;;
19402;SDS011;9837;48.888;8.998;2023-02-01T14:49:47;15.50;;;3.60;;
19402;SDS011;9837;48.888;8.998;2023-02-01T14:52:23;12.70;;;3.23;;
19402;SDS011;9837;48.888;8.998;2023-02-01T14:55:15;8.27;;;3.20;;
19402;SDS011;9837;48.888;8.998;2023-02-01T14:57:42;11.50;;;3.37;;
19402;SDS011;9837;48.888;8.998;2023-02-01T15:00:26;9.27;;;2.60;;
19402;SDS011;9837;48.888;8.998;2023-02-01T15:02:54;5.03;;;2.83;;
19402;SDS011;9837;48.888;8.998;2023-02-01T15:05:37;10.47;;;2.80;;
19402;SDS011;9837;48.888;8.998;2023-02-01T15:08:05;13.40;;;3.30;;
19402;SDS011;9837;48.888;8.998;2023-02-01T15:10:50;12.03;;;2.80;;
19402;SDS011;9837;48.888;8.998;2023-02-01T15:13:20;8.13;;;2.83;;
19402;SDS011;9837;48.888;8.998;2023-02-01T15:16:02;10.00;;;2.73;;
19402;SDS011;9837;48.888;8.998;2023-02-01T15:18:29;11.43;;;2.80;;
19402;SDS011;9837;48.888;8.998;2023-02-01T15:20:59;9.00;;;3.13;;
19402;SDS011;9837;48.888;8.998;2023-02-01T15:23:26;9.87;;;2.57;;
19402;SDS011;9837;48.888;8.998;2023-02-01T15:25:52;9.87;;;2.53;;
19402;SDS011;9837;48.888;8.998;2023-02-01T15:28:26;13.83;;;3.30;;
19402;SDS011;9837;48.888;8.998;2023-02-01T15:30:53;5.50;;;2.63;;
19402;SDS011;9837;48.888;8.998;2023-02-01T15:33:23;12.23;;;1.97;;
19402;SDS011;9837;48.888;8.998;2023-02-01T15:35:53;6.97;;;2.93;;
19402;SDS011;9837;48.888;8.998;2023-02-01T15:41:05;11.53;;;2.60;;
19402;SDS011;9837;48.888;8.998;2023-02-01T15:43:34;10.33;;;2.47;;
19402;SDS011;9837;48.888;8.998;2023-02-01T15:46:02;10.83;;;2.60;;
19402;SDS011;9837;48.888;8.998;2023-02-01T15:48:36;9.70;;;2.73;;
19402;SDS011;9837;48.888;8.998;2023-02-01T15:51:11;11.13;;;3.20;;
19402;SDS011;9837;48.888;8.998;2023-02-01T15:53:49;8.57;;;3.20;;
19402;SDS011;9837;48.888;8.998;2023-02-01T15:56:25;12.17;;;3.20;;
19402;SDS011;9837;48.888;8.998;2023-02-01T15:58:59;7.77;;;2.63;;
19402;SDS011;9837;48.888;8.998;2023-02-01T16:01:27;10.80;;;2.80;;
19402;SDS011;9837;48.888;8.998;2023-02-01T16:06:54;10.63;;;2.40;;
19402;SDS011;9837;48.888;8.998;2023-02-01T16:09:35;7.37;;;2.57;;
19402;SDS011;9837;48.888;8.998;2023-02-01T16:15:06;5.87;;;2.47;;
19402;SDS011;9837;48.888;8.998;2023-02-01T16:17:32;11.00;;;2.40;;
19402;SDS011;9837;48.888;8.998;2023-02-01T16:19:58;17.53;;;3.73;;
19402;SDS011;9837;48.888;8.998;2023-02-01T16:22:24;9.43;;;2.80;;
19402;SDS011;9837;48.888;8.998;2023-02-01T16:24:51;9.17;;;2.60;;
19402;SDS011;9837;48.888;8.998;2023-02-01T16:27:17;16.63;;;3.40;;
19402;SDS011;9837;48.888;8.998;2023-02-01T16:29:43;9.57;;;2.83;;
19402;SDS011;9837;48.888;8.998;2023-02-01T16:32:12;8.57;;;2.47;;
19402;SDS011;9837;48.888;8.998;2023-02-01T16:34:44;8.90;;;2.67;;
19402;SDS011;9837;48.888;8.998;2023-02-01T16:37:14;8.90;;;2.80;;
19402;SDS011;9837;48.888;8.998;2023-02-01T16:39:44;9.53;;;2.73;;
19402;SDS011;9837;48.888;8.998;2023-02-01T16:42:13;10.03;;;3.83;;
19402;SDS011;9837;48.888;8.998;2023-02-01T16:44:39;6.53;;;2.53;;
19402;SDS011;9837;48.888;8.998;2023-02-01T16:47:12;7.20;;;3.27;;
19402;SDS011;9837;48.888;8.998;2023-02-01T16:49:40;7.93;;;2.57;;
19402;SDS011;9837;48.888;8.998;2023-02-01T16:52:08;16.03;;;3.60;;
19402;SDS011;9837;48.888;8.998;2023-02-01T16:54:37;8.80;;;2.47;;
19402;SDS011;9837;48.888;8.998;2023-02-01T16:57:04;8.83;;;3.20;;
19402;SDS011;9837;48.888;8.998;2023-02-01T16:59:30;11.67;;;3.27;;
19402;SDS011;9837;48.888;8.998;2023-02-01T17:01:59;11.23;;;2.47;;
19402;SDS011;9837;48.888;8.998;2023-02-01T17:04:25;9.47;;;3.00;;
19402;SDS011;9837;48.888;8.998;2023-02-01T17:06:51;8.37;;;3.30;;
19402;SDS011;9837;48.888;8.998;2023-02-01T17:09:17;8.77;;;2.87;;
19402;SDS011;9837;48.888;8.998;2023-02-01T17:11:44;9.83;;;2.83;;
19402;SDS011;9837;48.888;8.998;2023-02-01T17:14:13;6.60;;;2.23;;
19402;SDS011;9837;48.888;8.998;2023-02-01T17:16:41;6.77;;;2.57;;
19402;SDS011;9837;48.888;8.998;2023-02-01T17:19:10;7.83;;;2.70;;
19402;SDS011;9837;48.888;8.998;2023-02-01T17:21:44;7.40;;;2.43;;
19402;SDS011;9837;48.888;8.998;2023-02-01T17:24:13;9.77;;;2.83;;
19402;SDS011;9837;48.888;8.998;2023-02-01T17:26:41;10.50;;;2.40;;
19402;SDS011;9837;48.888;8.998;2023-02-01T17:29:07;10.83;;;2.93;;
19402;SDS011;9837;48.888;8.998;2023-02-01T17:31:35;9.47;;;2.90;;
19402;SDS011;9837;48.888;8.998;2023-02-01T17:34:04;8.30;;;3.63;;